createdAt,value
2022-11-05T00:02:15.551Z,8.80
2022-11-05T00:06:16.229Z,8.90
2022-11-05T00:10:03.943Z,9.00
2022-11-05T00:14:04.628Z,9.10
2022-11-05T00:17:46.651Z,9.20
2022-11-05T00:21:47.514Z,9.20
2022-11-05T00:25:30.503Z,9.20
2022-11-05T00:29:12.564Z,9.30
2022-11-05T00:33:01.090Z,9.30
2022-11-05T00:36:43.120Z,9.20
2022-11-05T00:40:25.142Z,9.30
2022-11-05T00:44:26.291Z,9.20
2022-11-05T00:48:26.797Z,9.20
2022-11-05T00:52:35.202Z,9.20
2022-11-05T00:56:17.578Z,9.20
2022-11-05T00:59:59.602Z,9.20
2022-11-05T01:03:41.626Z,9.20
2022-11-05T01:07:23.731Z,9.20
2022-11-05T01:11:11.813Z,9.20
2022-11-05T01:14:53.924Z,9.20
2022-11-05T01:18:38.970Z,9.20
2022-11-05T01:22:21.033Z,9.20
2022-11-05T01:26:02.999Z,9.20
2022-11-05T01:29:45.074Z,9.10
2022-11-05T01:33:27.108Z,9.10
2022-11-05T01:37:09.062Z,9.10
2022-11-05T01:40:51.119Z,9.10
2022-11-05T01:44:57.377Z,9.00
2022-11-05T01:48:40.174Z,9.00
2022-11-05T01:52:24.338Z,9.00
2022-11-05T01:56:19.324Z,9.00
2022-11-05T02:00:02.422Z,9.00
2022-11-05T02:03:45.851Z,9.00
2022-11-05T02:07:29.449Z,9.10
2022-11-05T02:11:14.374Z,9.10
2022-11-05T02:14:57.389Z,9.10
2022-11-05T02:19:05.044Z,9.10
2022-11-05T02:23:16.095Z,9.10
2022-11-05T02:27:34.450Z,9.10
2022-11-05T02:31:27.323Z,9.20
2022-11-05T02:35:27.133Z,9.20
2022-11-05T02:39:43.138Z,9.20
2022-11-05T02:44:06.945Z,9.20
2022-11-05T02:47:59.206Z,9.20
2022-11-05T02:52:00.634Z,9.20
2022-11-05T02:55:59.485Z,9.20
2022-11-05T02:59:41.477Z,9.20
2022-11-05T03:03:36.552Z,9.30
2022-11-05T03:07:39.883Z,9.30
2022-11-05T03:11:24.574Z,9.30
2022-11-05T03:15:53.191Z,9.30
2022-11-05T03:20:01.167Z,9.30
2022-11-05T03:23:50.470Z,9.20
2022-11-05T03:27:36.915Z,9.20
2022-11-05T03:31:20.653Z,9.30
2022-11-05T03:35:08.622Z,9.30
2022-11-05T03:38:53.214Z,9.40
2022-11-05T03:51:25.786Z,9.50
2022-11-05T03:55:07.873Z,9.50
2022-11-05T03:58:54.656Z,9.60
2022-11-05T04:02:39.759Z,9.60
2022-11-05T04:06:40.469Z,9.50
2022-11-05T04:10:41.367Z,9.50
2022-11-05T04:14:23.509Z,9.50
2022-11-05T04:18:05.456Z,9.60
2022-11-05T04:22:05.938Z,9.50
2022-11-05T04:25:47.843Z,9.50
2022-11-05T04:29:48.250Z,9.50
2022-11-05T04:33:30.238Z,9.50
2022-11-05T04:37:12.214Z,9.60
2022-11-05T04:41:11.819Z,9.60
2022-11-05T04:44:56.918Z,9.60
2022-11-05T04:48:39.277Z,9.60
2022-11-05T04:52:21.737Z,9.60
2022-11-05T04:56:18.709Z,9.60
2022-11-05T05:00:00.799Z,9.60
2022-11-05T05:03:43.068Z,9.60
2022-11-05T05:07:25.991Z,9.60
2022-11-05T05:11:10.705Z,9.50
2022-11-05T05:14:52.665Z,9.60
2022-11-05T05:18:35.027Z,9.60
2022-11-05T05:22:17.052Z,9.50
2022-11-05T05:26:00.530Z,9.50
2022-11-05T05:29:42.483Z,9.50
2022-11-05T05:33:24.364Z,9.60
2022-11-05T05:37:06.987Z,9.60
2022-11-05T05:40:50.436Z,9.60
2022-11-05T05:44:32.695Z,9.70
2022-11-05T05:48:14.620Z,9.70
2022-11-05T05:51:56.996Z,9.80
2022-11-05T05:55:38.900Z,9.80
2022-11-05T05:59:21.357Z,9.80
2022-11-05T06:03:03.490Z,9.80
2022-11-05T06:06:47.071Z,9.90
2022-11-05T06:10:29.231Z,10.00
2022-11-05T06:14:12.614Z,10.00
2022-11-05T06:17:54.587Z,10.00
2022-11-05T06:21:36.687Z,10.10
2022-11-05T06:25:18.682Z,10.10
2022-11-05T06:29:00.659Z,10.10
2022-11-05T06:32:42.627Z,10.20
2022-11-05T06:36:24.644Z,10.10
2022-11-05T06:40:08.066Z,10.20
2022-11-05T06:43:50.065Z,10.20
2022-11-05T06:47:32.293Z,10.10
2022-11-05T06:51:14.250Z,10.10
2022-11-05T06:54:56.286Z,10.10
2022-11-05T06:58:38.408Z,10.10
2022-11-05T07:02:20.455Z,10.10
2022-11-05T07:06:03.724Z,10.10
2022-11-05T07:09:45.720Z,10.10
2022-11-05T07:13:27.895Z,10.10
2022-11-05T07:17:09.889Z,10.10
2022-11-05T07:20:51.867Z,10.10
2022-11-05T07:24:34.122Z,10.20
2022-11-05T07:28:16.124Z,10.20
2022-11-05T07:31:58.011Z,10.20
2022-11-05T07:35:39.970Z,10.20
2022-11-05T07:39:22.011Z,10.30
2022-11-05T07:43:04.082Z,10.30
2022-11-05T07:46:46.112Z,10.40
2022-11-05T07:50:30.953Z,10.50
2022-11-05T07:54:12.951Z,10.60
2022-11-05T07:57:55.069Z,10.60
2022-11-05T08:01:37.335Z,10.70
2022-11-05T08:05:19.431Z,10.70
2022-11-05T08:09:04.546Z,10.80
2022-11-05T08:12:46.728Z,10.90
2022-11-05T08:16:28.781Z,10.90
2022-11-05T08:20:12.033Z,11.00
2022-11-05T08:23:54.096Z,11.10
2022-11-05T08:27:36.308Z,11.20
2022-11-05T08:31:18.388Z,11.20
2022-11-05T08:35:00.445Z,11.30
2022-11-05T08:38:42.498Z,11.40
2022-11-05T08:42:24.559Z,11.50
2022-11-05T08:46:06.613Z,11.70
2022-11-05T08:49:48.719Z,11.80
2022-11-05T08:53:30.825Z,11.80
2022-11-05T08:57:12.875Z,11.90
2022-11-05T09:00:58.986Z,12.00
2022-11-05T09:04:44.431Z,12.00
2022-11-05T09:08:27.051Z,12.10
2022-11-05T09:12:13.061Z,12.10
2022-11-05T09:15:55.412Z,12.10
2022-11-05T09:19:40.069Z,12.10
2022-11-05T09:23:22.499Z,12.20
2022-11-05T09:27:04.551Z,12.20
2022-11-05T09:30:48.695Z,12.20
2022-11-05T09:34:30.748Z,12.30
2022-11-05T09:38:13.127Z,12.40
2022-11-05T09:42:00.350Z,12.40
2022-11-05T09:45:44.035Z,12.40
2022-11-05T09:49:42.652Z,12.40
2022-11-05T09:53:25.263Z,12.40
2022-11-05T09:57:12.880Z,12.40
2022-11-05T10:00:55.264Z,12.40
2022-11-05T10:04:39.049Z,12.40
2022-11-05T10:08:28.138Z,12.40
2022-11-05T10:12:18.461Z,12.40
2022-11-05T10:16:03.558Z,12.40
2022-11-05T10:19:51.889Z,12.50
2022-11-05T10:23:34.522Z,12.60
2022-11-05T10:27:24.660Z,12.70
2022-11-05T10:31:09.783Z,12.60
2022-11-05T10:34:53.840Z,12.60
2022-11-05T10:38:36.149Z,12.60
2022-11-05T10:42:26.675Z,12.60
2022-11-05T10:46:23.565Z,12.60
2022-11-05T10:50:30.413Z,12.70
2022-11-05T10:54:24.185Z,12.70
2022-11-05T10:58:15.501Z,12.70
2022-11-05T11:02:11.913Z,12.80
2022-11-05T11:06:01.073Z,12.90
2022-11-05T11:09:49.256Z,13.00
2022-11-05T11:14:02.975Z,13.00
2022-11-05T11:17:44.987Z,13.10
2022-11-05T11:21:28.972Z,13.00
2022-11-05T11:25:38.891Z,13.00
2022-11-05T11:29:28.051Z,13.00
2022-11-05T11:33:13.117Z,13.00
2022-11-05T11:37:03.366Z,13.00
2022-11-05T11:40:48.500Z,12.90
